Time;durP1;ratioP1;P1;durP2;ratioP2;P2;SDS_P1;SDS_P2;PMS_P1;PMS_P2;Temp;Humidity;BMP_temperature;BMP_pressure;BME280_temperature;BME280_humidity;BME280_pressure;Samples;Min_cycle;Max_cycle;Signal;HPM_P1;HPM_P2
2024/04/06 00:00:08;;;;;;;5.67;5.17;;;;;;;;;;4862381;29;20260;-82
2024/04/06 00:02:42;;;;;;;5.40;4.90;;;;;;;;;;4859858;29;20229;-81
2024/04/06 00:05:09;;;;;;;5.07;4.63;;;;;;;;;;4878374;29;20240;-80
2024/04/06 00:07:37;;;;;;;5.33;4.83;;;;;;;;;;4858896;29;20254;-81
2024/04/06 00:10:03;;;;;;;5.90;5.17;;;;;;;;;;4848215;29;20244;-78
2024/04/06 00:12:28;;;;;;;6.53;5.90;;;;;;;;;;4869678;29;20340;-80
2024/04/06 00:14:54;;;;;;;8.07;5.33;;;;;;;;;;4873098;29;20652;-80
2024/04/06 00:17:21;;;;;;;5.80;5.20;;;;;;;;;;4856399;29;20648;-81
2024/04/06 00:19:51;;;;;;;6.13;4.67;;;;;;;;;;4843918;29;20229;-80
2024/04/06 00:22:16;;;;;;;5.90;4.23;;;;;;;;;;4841602;29;20233;-80
2024/04/06 00:24:42;;;;;;;4.53;4.13;;;;;;;;;;4850023;29;20221;-81
2024/04/06 00:27:08;;;;;;;4.97;4.50;;;;;;;;;;4862532;29;20301;-81
2024/04/06 00:29:33;;;;;;;4.80;4.30;;;;;;;;;;4864053;29;20249;-78
2024/04/06 00:31:59;;;;;;;6.50;4.87;;;;;;;;;;4865252;29;20235;-81
2024/04/06 00:34:27;;;;;;;6.13;5.10;;;;;;;;;;4866780;29;20217;-81
2024/04/06 00:36:54;;;;;;;5.43;4.93;;;;;;;;;;4875349;29;20222;-80
2024/04/06 00:39:20;;;;;;;6.43;5.87;;;;;;;;;;4865991;29;20233;-79
2024/04/06 00:41:48;;;;;;;6.97;6.17;;;;;;;;;;4862956;29;21036;-81
2024/04/06 00:44:16;;;;;;;7.43;6.27;;;;;;;;;;4853535;29;20229;-79
2024/04/06 00:46:41;;;;;;;6.47;5.60;;;;;;;;;;4862532;29;20324;-81
2024/04/06 00:49:09;;;;;;;7.70;6.13;;;;;;;;;;4868788;29;20234;-81
2024/04/06 00:51:35;;;;;;;6.37;5.80;;;;;;;;;;4859658;29;20221;-81
2024/04/06 00:54:03;;;;;;;6.27;5.77;;;;;;;;;;4861153;29;20236;-79
2024/04/06 00:56:28;;;;;;;7.07;5.87;;;;;;;;;;4865354;29;20229;-81
2024/04/06 00:58:54;;;;;;;6.63;6.03;;;;;;;;;;4848439;29;20242;-78
2024/04/06 01:01:19;;;;;;;9.90;6.67;;;;;;;;;;4859253;29;20288;-81
2024/04/06 01:03:45;;;;;;;6.97;5.63;;;;;;;;;;4860376;29;20221;-80
2024/04/06 01:06:15;;;;;;;8.17;6.03;;;;;;;;;;4877690;29;20965;-81
2024/04/06 01:08:42;;;;;;;8.00;6.97;;;;;;;;;;4878283;29;20249;-79
2024/04/06 01:11:07;;;;;;;12.53;7.73;;;;;;;;;;4885811;29;20284;-80
2024/04/06 01:13:35;;;;;;;9.40;7.00;;;;;;;;;;4874431;29;20230;-80
2024/04/06 01:16:01;;;;;;;8.90;7.23;;;;;;;;;;4852359;29;20308;-80
2024/04/06 01:18:26;;;;;;;7.53;7.00;;;;;;;;;;4849018;29;20256;-80
2024/04/06 01:20:57;;;;;;;9.83;7.70;;;;;;;;;;4843569;29;20228;-80
2024/04/06 01:23:23;;;;;;;8.87;7.97;;;;;;;;;;4862609;29;20229;-81
2024/04/06 01:25:48;;;;;;;8.87;8.07;;;;;;;;;;4860389;29;20260;-80
2024/04/06 01:28:14;;;;;;;9.40;8.50;;;;;;;;;;4866578;29;20225;-81
2024/04/06 01:30:39;;;;;;;10.83;8.83;;;;;;;;;;4877909;29;20236;-80
2024/04/06 01:33:08;;;;;;;11.53;9.20;;;;;;;;;;4864562;29;20233;-81
2024/04/06 01:35:33;;;;;;;10.43;8.87;;;;;;;;;;4845923;29;20253;-81
2024/04/06 01:37:59;;;;;;;9.80;8.80;;;;;;;;;;4843647;29;20588;-81
2024/04/06 01:40:24;;;;;;;10.33;9.33;;;;;;;;;;4850510;29;20861;-78
2024/04/06 01:42:50;;;;;;;10.60;9.60;;;;;;;;;;4862904;29;20224;-79
2024/04/06 01:45:15;;;;;;;8.97;8.23;;;;;;;;;;4860892;29;20840;-80
2024/04/06 01:47:46;;;;;;;8.63;7.83;;;;;;;;;;4879564;29;20237;-80
2024/04/06 01:50:11;;;;;;;12.50;9.20;;;;;;;;;;4851775;29;20243;-81
2024/04/06 01:52:37;;;;;;;10.53;9.53;;;;;;;;;;4873773;29;20724;-80
2024/04/06 01:55:03;;;;;;;12.13;9.80;;;;;;;;;;4896958;29;20221;-80
2024/04/06 01:57:29;;;;;;;11.90;9.83;;;;;;;;;;4861198;29;20230;-81
2024/04/06 01:59:54;;;;;;;11.37;10.20;;;;;;;;;;4862518;29;20718;-81
2024/04/06 02:02:20;;;;;;;10.90;9.90;;;;;;;;;;4858316;29;20237;-81
2024/04/06 02:04:49;;;;;;;11.87;10.67;;;;;;;;;;4848928;29;20229;-82
2024/04/06 02:07:17;;;;;;;11.17;10.10;;;;;;;;;;4861114;29;20234;-81
2024/04/06 02:09:43;;;;;;;11.00;9.83;;;;;;;;;;4857025;29;20428;-81
2024/04/06 02:12:09;;;;;;;11.37;9.80;;;;;;;;;;4845645;29;20256;-82
2024/04/06 02:14:34;;;;;;;11.20;10.00;;;;;;;;;;4872480;29;20230;-81
2024/04/06 02:17:05;;;;;;;11.73;10.63;;;;;;;;;;4853877;29;20289;-80
2024/04/06 02:19:31;;;;;;;10.83;9.97;;;;;;;;;;4841673;29;20230;-82
2024/04/06 02:21:58;;;;;;;14.63;10.50;;;;;;;;;;4848641;29;20959;-80
2024/04/06 02:24:27;;;;;;;13.93;10.23;;;;;;;;;;4873808;29;20342;-80
2024/04/06 02:26:53;;;;;;;10.67;9.50;;;;;;;;;;4845607;29;20712;-81
2024/04/06 02:29:19;;;;;;;11.63;10.50;;;;;;;;;;4883067;29;20284;-81
2024/04/06 02:31:44;;;;;;;11.30;10.13;;;;;;;;;;4845798;29;20259;-81
2024/04/06 02:34:13;;;;;;;11.83;10.57;;;;;;;;;;4865674;29;20257;-80
2024/04/06 02:36:41;;;;;;;12.60;10.50;;;;;;;;;;4861874;29;20214;-81
2024/04/06 02:39:10;;;;;;;11.77;10.57;;;;;;;;;;4887048;29;20237;-81
2024/04/06 02:41:38;;;;;;;12.43;11.17;;;;;;;;;;4872313;29;20946;-81
2024/04/06 02:44:06;;;;;;;12.30;11.07;;;;;;;;;;4890130;29;20221;-79
2024/04/06 02:46:31;;;;;;;10.90;9.90;;;;;;;;;;4865172;29;20265;-81
2024/04/06 02:48:57;;;;;;;10.97;9.87;;;;;;;;;;4844712;29;20243;-81
2024/04/06 02:51:23;;;;;;;11.13;10.07;;;;;;;;;;4848806;29;20229;-80
2024/04/06 02:53:49;;;;;;;13.33;11.17;;;;;;;;;;4850720;29;20875;-80
2024/04/06 02:56:16;;;;;;;13.33;10.47;;;;;;;;;;4842588;29;20288;-81
2024/04/06 02:58:44;;;;;;;11.97;10.77;;;;;;;;;;4860894;29;20221;-81
2024/04/06 03:01:09;;;;;;;11.97;10.70;;;;;;;;;;4845436;29;20268;-79
2024/04/06 03:03:35;;;;;;;14.60;11.47;;;;;;;;;;4869487;29;20580;-80
2024/04/06 03:06:00;;;;;;;12.73;11.53;;;;;;;;;;4866175;29;20591;-80
2024/04/06 03:08:26;;;;;;;13.27;11.87;;;;;;;;;;4862636;29;20226;-80
2024/04/06 03:10:52;;;;;;;13.07;11.70;;;;;;;;;;4874668;29;20262;-79
2024/04/06 03:13:19;;;;;;;12.47;11.27;;;;;;;;;;4849104;29;20289;-80
2024/04/06 03:15:44;;;;;;;12.80;11.60;;;;;;;;;;4860715;29;20236;-79
2024/04/06 03:18:10;;;;;;;12.40;11.10;;;;;;;;;;4860939;29;20256;-80
2024/04/06 03:20:36;;;;;;;13.37;12.00;;;;;;;;;;4868580;29;20229;-80
2024/04/06 03:23:03;;;;;;;13.40;12.00;;;;;;;;;;4854360;29;20224;-80
2024/04/06 03:25:31;;;;;;;14.17;12.90;;;;;;;;;;4849221;29;21053;-80
2024/04/06 03:27:57;;;;;;;13.17;11.97;;;;;;;;;;4861520;29;20237;-80
2024/04/06 03:30:25;;;;;;;12.67;11.37;;;;;;;;;;4862206;29;20309;-81
2024/04/06 03:32:53;;;;;;;12.10;10.90;;;;;;;;;;4861194;29;20324;-79
2024/04/06 03:35:22;;;;;;;12.50;11.30;;;;;;;;;;4870953;29;20234;-80
2024/04/06 03:37:48;;;;;;;12.67;11.57;;;;;;;;;;4855132;29;20554;-80
2024/04/06 03:40:15;;;;;;;11.83;10.73;;;;;;;;;;4846874;29;20226;-82
2024/04/06 03:42:40;;;;;;;12.17;10.90;;;;;;;;;;4845288;29;20229;-80
2024/04/06 03:45:06;;;;;;;12.50;11.13;;;;;;;;;;4860817;29;20221;-80
2024/04/06 03:47:32;;;;;;;11.50;10.37;;;;;;;;;;4864162;29;20612;-80
2024/04/06 03:49:57;;;;;;;11.63;10.43;;;;;;;;;;4863875;29;20320;-80
2024/04/06 03:52:24;;;;;;;11.53;10.53;;;;;;;;;;4860900;29;20229;-79
2024/04/06 03:54:52;;;;;;;12.20;10.97;;;;;;;;;;4861164;29;20703;-81
2024/04/06 04:01:13;;;;;;;10.90;9.90;;;;;;;;;;4875126;29;20319;-81
2024/04/06 04:03:39;;;;;;;11.23;10.23;;;;;;;;;;4849067;29;20230;-81
2024/04/06 04:06:07;;;;;;;12.13;10.93;;;;;;;;;;4855923;29;20233;-81
2024/04/06 04:08:35;;;;;;;11.93;10.93;;;;;;;;;;4875619;29;20781;-81
2024/04/06 04:11:00;;;;;;;11.67;10.47;;;;;;;;;;4875113;29;20260;-80
2024/04/06 04:13:26;;;;;;;11.87;10.87;;;;;;;;;;4858231;29;20603;-80
2024/04/06 04:15:53;;;;;;;12.83;11.53;;;;;;;;;;4853389;29;20225;-81
2024/04/06 04:18:21;;;;;;;12.60;11.33;;;;;;;;;;4859981;29;20607;-80
2024/04/06 04:20:49;;;;;;;12.67;11.47;;;;;;;;;;4857598;29;20230;-80
2024/04/06 04:23:19;;;;;;;12.67;11.40;;;;;;;;;;4848556;29;20221;-80
2024/04/06 04:25:44;;;;;;;12.03;10.83;;;;;;;;;;4858438;29;20240;-80
2024/04/06 04:28:10;;;;;;;11.90;10.80;;;;;;;;;;4861531;29;20230;-81
2024/04/06 04:30:38;;;;;;;11.67;10.63;;;;;;;;;;4858716;29;20231;-80
2024/04/06 04:33:03;;;;;;;12.80;11.40;;;;;;;;;;4873745;29;20254;-80
2024/04/06 04:35:31;;;;;;;11.53;10.30;;;;;;;;;;4855665;29;20225;-81
2024/04/06 04:37:57;;;;;;;10.87;9.87;;;;;;;;;;4855363;29;20894;-79
2024/04/06 04:40:22;;;;;;;11.03;10.03;;;;;;;;;;4842372;29;20233;-81
2024/04/06 04:42:48;;;;;;;16.37;10.13;;;;;;;;;;4865997;29;20571;-80
2024/04/06 04:45:14;;;;;;;11.30;9.47;;;;;;;;;;4854170;29;20210;-80
2024/04/06 04:47:42;;;;;;;10.67;9.67;;;;;;;;;;4857896;29;20652;-80
2024/04/06 04:50:13;;;;;;;10.00;9.10;;;;;;;;;;4851728;29;20234;-80
2024/04/06 04:52:41;;;;;;;10.10;9.17;;;;;;;;;;4846122;29;20244;-81
2024/04/06 04:55:07;;;;;;;11.10;10.03;;;;;;;;;;4859330;29;20242;-81
2024/04/06 04:57:32;;;;;;;11.53;10.17;;;;;;;;;;4847773;29;20221;-80
2024/04/06 05:00:00;;;;;;;10.90;9.90;;;;;;;;;;4857418;29;20649;-79
2024/04/06 05:02:26;;;;;;;11.03;10.07;;;;;;;;;;4857696;29;20293;-80
2024/04/06 05:04:51;;;;;;;10.83;9.67;;;;;;;;;;4857517;29;20233;-79
2024/04/06 05:07:21;;;;;;;12.37;10.20;;;;;;;;;;4873233;29;20222;-81
2024/04/06 05:09:49;;;;;;;11.33;10.00;;;;;;;;;;4877755;29;20214;-80
2024/04/06 05:12:15;;;;;;;18.27;15.03;;;;;;;;;;4866268;29;20206;-80
2024/04/06 05:14:41;;;;;;;17.30;15.63;;;;;;;;;;4876972;29;20360;-81
2024/04/06 05:17:09;;;;;;;19.33;17.03;;;;;;;;;;4878494;29;20289;-81
2024/04/06 05:19:35;;;;;;;13.43;12.10;;;;;;;;;;4893455;29;20249;-80
2024/04/06 05:22:00;;;;;;;12.47;11.17;;;;;;;;;;4889714;29;20237;-83
2024/04/06 05:24:26;;;;;;;11.77;10.50;;;;;;;;;;4868143;29;20657;-81
2024/04/06 05:26:51;;;;;;;12.43;11.23;;;;;;;;;;4869938;29;20237;-82
2024/04/06 05:29:18;;;;;;;13.50;12.10;;;;;;;;;;4870197;29;20241;-83
2024/04/06 05:31:46;;;;;;;14.93;12.90;;;;;;;;;;4870279;29;20238;-82
2024/04/06 05:34:12;;;;;;;15.00;12.60;;;;;;;;;;4883651;29;20254;-82
2024/04/06 05:36:37;;;;;;;14.30;12.67;;;;;;;;;;4871136;29;20290;-84
2024/04/06 05:39:04;;;;;;;14.30;12.93;;;;;;;;;;4867519;29;20237;-82
2024/04/06 05:41:30;;;;;;;14.60;13.10;;;;;;;;;;4851402;29;20232;-84
2024/04/06 05:43:57;;;;;;;13.97;12.67;;;;;;;;;;4868022;29;20248;-82
2024/04/06 05:46:23;;;;;;;15.27;13.77;;;;;;;;;;4862855;29;20237;-83
2024/04/06 05:48:51;;;;;;;16.10;13.63;;;;;;;;;;4884181;29;20249;-81
2024/04/06 05:51:20;;;;;;;16.53;14.83;;;;;;;;;;4864815;29;20262;-82
2024/04/06 05:53:46;;;;;;;16.43;14.73;;;;;;;;;;4849130;29;20229;-82
2024/04/06 05:56:11;;;;;;;15.63;14.07;;;;;;;;;;4864956;29;21018;-82
2024/04/06 05:58:37;;;;;;;15.97;14.00;;;;;;;;;;4865934;29;20550;-81
2024/04/06 06:01:03;;;;;;;14.63;13.23;;;;;;;;;;4864809;29;20221;-80
2024/04/06 06:03:28;;;;;;;14.83;12.83;;;;;;;;;;4835501;29;20235;-82
2024/04/06 06:05:57;;;;;;;13.10;11.90;;;;;;;;;;4866936;29;20241;-82
2024/04/06 06:08:25;;;;;;;13.87;12.50;;;;;;;;;;4836905;29;20257;-83
2024/04/06 06:10:57;;;;;;;13.83;12.40;;;;;;;;;;4847214;29;20230;-83
2024/04/06 06:13:23;;;;;;;14.30;11.83;;;;;;;;;;4879582;29;20718;-84
2024/04/06 06:15:49;;;;;;;13.27;11.93;;;;;;;;;;4849820;29;20229;-83
2024/04/06 06:18:15;;;;;;;12.50;11.33;;;;;;;;;;4864696;29;20230;-82
2024/04/06 06:20:41;;;;;;;12.00;10.47;;;;;;;;;;4850210;29;20237;-82
2024/04/06 06:23:08;;;;;;;12.83;9.70;;;;;;;;;;4846928;29;20241;-84
2024/04/06 06:25:37;;;;;;;10.60;9.50;;;;;;;;;;4867750;29;20311;-84
2024/04/06 06:28:03;;;;;;;12.17;9.00;;;;;;;;;;4866783;29;20613;-82
2024/04/06 06:30:31;;;;;;;9.70;8.07;;;;;;;;;;4867666;29;20241;-83
2024/04/06 06:32:57;;;;;;;7.70;6.90;;;;;;;;;;4885065;29;20230;-82
2024/04/06 06:35:23;;;;;;;10.27;7.30;;;;;;;;;;4872341;29;20225;-81
2024/04/06 06:37:48;;;;;;;8.80;6.77;;;;;;;;;;4855123;29;20223;-82
2024/04/06 06:40:14;;;;;;;8.88;6.20;;;;;;;;;;4866557;29;20277;-83
2024/04/06 06:42:41;;;;;;;7.63;5.70;;;;;;;;;;4880135;29;20257;-84
2024/04/06 06:45:08;;;;;;;9.27;6.20;;;;;;;;;;4850984;29;20274;-83
2024/04/06 06:47:33;;;;;;;8.25;5.43;;;;;;;;;;4834404;29;20286;-82
2024/04/06 06:49:59;;;;;;;7.20;5.25;;;;;;;;;;4847780;29;20241;-82
2024/04/06 06:52:27;;;;;;;6.43;4.90;;;;;;;;;;4850646;29;20316;-83
2024/04/06 06:54:55;;;;;;;6.30;4.73;;;;;;;;;;4862381;29;20244;-82
2024/04/06 06:57:23;;;;;;;5.13;4.10;;;;;;;;;;4860416;29;20234;-84
2024/04/06 06:59:48;;;;;;;6.07;3.80;;;;;;;;;;4848089;29;20240;-82
2024/04/06 07:02:14;;;;;;;4.20;3.70;;;;;;;;;;4854040;29;20347;-83
2024/04/06 07:04:39;;;;;;;4.47;3.40;;;;;;;;;;4846696;29;20466;-83
2024/04/06 07:07:05;;;;;;;5.72;3.10;;;;;;;;;;4842419;29;20240;-84
2024/04/06 07:09:31;;;;;;;5.03;3.10;;;;;;;;;;4882748;29;20235;-82
2024/04/06 07:11:58;;;;;;;4.70;2.67;;;;;;;;;;4856282;29;20233;-82
2024/04/06 07:14:24;;;;;;;3.92;2.65;;;;;;;;;;4879789;29;20237;-81
2024/04/06 07:16:49;;;;;;;7.25;3.03;;;;;;;;;;4876800;29;20229;-83
2024/04/06 07:19:17;;;;;;;3.13;2.63;;;;;;;;;;4862363;29;20241;-82
2024/04/06 07:21:43;;;;;;;5.40;2.50;;;;;;;;;;4896110;29;20226;-82
2024/04/06 07:24:14;;;;;;;3.35;2.47;;;;;;;;;;4853520;29;20227;-84
2024/04/06 07:26:44;;;;;;;3.65;2.42;;;;;;;;;;4892373;29;20253;-83
2024/04/06 07:29:15;;;;;;;3.45;2.10;;;;;;;;;;4862368;29;20264;-82
2024/04/06 07:31:47;;;;;;;3.42;2.40;;;;;;;;;;4880936;29;20700;-84
2024/04/06 07:34:13;;;;;;;4.20;2.10;;;;;;;;;;4833028;29;20222;-83
2024/04/06 07:36:43;;;;;;;3.45;1.98;;;;;;;;;;4861902;29;20316;-81
2024/04/06 07:39:09;;;;;;;2.88;2.15;;;;;;;;;;4840770;29;20320;-83
2024/04/06 07:41:35;;;;;;;4.35;2.00;;;;;;;;;;4882319;29;20288;-83
2024/04/06 07:44:03;;;;;;;3.08;1.83;;;;;;;;;;4865932;29;20289;-85
2024/04/06 07:46:33;;;;;;;1.77;1.60;;;;;;;;;;4835198;29;20273;-81
2024/04/06 07:48:59;;;;;;;2.10;1.60;;;;;;;;;;4862023;29;20264;-82
2024/04/06 07:51:26;;;;;;;2.95;1.80;;;;;;;;;;4865990;29;20233;-82
2024/04/06 07:53:56;;;;;;;2.25;1.67;;;;;;;;;;4856525;29;20649;-83
2024/04/06 07:56:24;;;;;;;2.97;1.55;;;;;;;;;;4865639;29;20773;-83
2024/04/06 07:58:52;;;;;;;2.63;1.80;;;;;;;;;;4880672;29;20590;-84
2024/04/06 08:01:21;;;;;;;2.92;1.60;;;;;;;;;;4867187;29;20266;-82
2024/04/06 08:03:46;;;;;;;2.05;1.50;;;;;;;;;;4851623;29;20248;-84
2024/04/06 08:06:16;;;;;;;2.60;1.50;;;;;;;;;;4861605;29;20225;-83
2024/04/06 08:08:43;;;;;;;1.52;1.33;;;;;;;;;;4851650;29;20635;-83
2024/04/06 08:11:09;;;;;;;4.13;1.50;;;;;;;;;;4847893;29;20225;-83
2024/04/06 08:13:35;;;;;;;2.25;1.67;;;;;;;;;;4847408;29;20233;-84
2024/04/06 08:16:00;;;;;;;5.22;3.30;;;;;;;;;;4860895;29;20226;-83
2024/04/06 08:18:26;;;;;;;2.30;1.42;;;;;;;;;;4863451;29;20265;-82
2024/04/06 08:20:54;;;;;;;4.15;2.08;;;;;;;;;;4861536;29;20237;-83
2024/04/06 08:23:20;;;;;;;3.50;1.35;;;;;;;;;;4861917;29;20325;-82
2024/04/06 08:25:52;;;;;;;2.25;1.38;;;;;;;;;;4850073;29;20692;-78
2024/04/06 08:28:18;;;;;;;1.77;1.50;;;;;;;;;;4857670;29;20602;-79
2024/04/06 08:30:43;;;;;;;1.92;1.10;;;;;;;;;;4857821;29;20233;-79
2024/04/06 08:33:09;;;;;;;2.45;1.30;;;;;;;;;;4856312;29;20240;-80
2024/04/06 08:35:37;;;;;;;1.88;1.02;;;;;;;;;;4867652;29;20225;-80
2024/04/06 08:38:07;;;;;;;2.08;1.20;;;;;;;;;;4842354;29;20281;-81
2024/04/06 08:40:37;;;;;;;1.73;1.02;;;;;;;;;;4844724;29;20275;-80
2024/04/06 08:43:02;;;;;;;2.78;1.30;;;;;;;;;;4857028;29;20261;-81
2024/04/06 08:45:28;;;;;;;2.55;1.30;;;;;;;;;;4841942;29;20218;-82
2024/04/06 08:47:54;;;;;;;2.95;1.20;;;;;;;;;;4860983;29;20237;-80
2024/04/06 08:50:22;;;;;;;2.13;1.10;;;;;;;;;;4859182;29;20842;-80
2024/04/06 08:52:50;;;;;;;1.52;1.15;;;;;;;;;;4847042;29;20226;-80
2024/04/06 08:55:16;;;;;;;2.53;1.30;;;;;;;;;;4875154;29;20229;-81
2024/04/06 08:57:41;;;;;;;1.75;1.20;;;;;;;;;;4846848;29;20280;-80
2024/04/06 09:00:11;;;;;;;2.70;1.23;;;;;;;;;;4848262;29;20238;-80
2024/04/06 09:02:37;;;;;;;2.42;1.13;;;;;;;;;;4866389;29;20577;-77
2024/04/06 09:05:05;;;;;;;2.00;1.17;;;;;;;;;;4848185;29;20225;-79
2024/04/06 09:07:31;;;;;;;3.25;1.45;;;;;;;;;;4849115;29;20225;-80
2024/04/06 09:09:56;;;;;;;2.63;1.00;;;;;;;;;;4868419;29;20304;-81
2024/04/06 09:12:24;;;;;;;1.52;1.20;;;;;;;;;;4848748;29;20234;-80
2024/04/06 09:14:50;;;;;;;3.20;1.20;;;;;;;;;;4851461;29;20236;-81
2024/04/06 09:17:18;;;;;;;2.30;1.10;;;;;;;;;;4873087;29;20230;-79
2024/04/06 09:19:47;;;;;;;1.73;1.13;;;;;;;;;;4865830;29;20259;-81
2024/04/06 09:22:12;;;;;;;1.88;1.10;;;;;;;;;;4858727;29;20241;-82
2024/04/06 09:24:43;;;;;;;2.75;1.25;;;;;;;;;;4867315;29;20228;-85
2024/04/06 09:27:11;;;;;;;1.60;1.00;;;;;;;;;;4852446;29;20696;-81
2024/04/06 09:29:37;;;;;;;2.40;1.10;;;;;;;;;;4849887;29;20241;-81
2024/04/06 09:32:04;;;;;;;2.63;1.40;;;;;;;;;;4868060;29;20826;-78
2024/04/06 09:34:29;;;;;;;4.18;1.25;;;;;;;;;;4849883;29;20332;-79
2024/04/06 09:37:02;;;;;;;1.58;1.00;;;;;;;;;;4847824;29;20241;-77
2024/04/06 09:39:31;;;;;;;2.53;1.00;;;;;;;;;;4862669;29;20240;-80
2024/04/06 09:42:00;;;;;;;2.22;0.95;;;;;;;;;;4847206;29;20229;-81
2024/04/06 09:44:31;;;;;;;1.15;0.90;;;;;;;;;;4871244;29;20226;-80
2024/04/06 09:46:58;;;;;;;1.80;0.93;;;;;;;;;;4859601;29;20232;-82
2024/04/06 09:49:24;;;;;;;0.93;0.85;;;;;;;;;;4881364;29;20236;-80
2024/04/06 09:51:53;;;;;;;1.63;1.00;;;;;;;;;;4868430;29;20218;-81
2024/04/06 09:54:22;;;;;;;2.03;0.90;;;;;;;;;;4864005;29;20232;-78
2024/04/06 09:56:50;;;;;;;0.85;0.70;;;;;;;;;;4862657;29;20225;-79
2024/04/06 09:59:22;;;;;;;2.00;0.80;;;;;;;;;;4864338;29;20655;-80
2024/04/06 10:01:47;;;;;;;1.77;1.45;;;;;;;;;;4863087;29;20225;-80
2024/04/06 10:04:26;;;;;;;1.88;0.95;;;;;;;;;;4855973;29;20240;-79
2024/04/06 10:06:56;;;;;;;1.58;0.82;;;;;;;;;;4858478;29;20236;-81
2024/04/06 10:09:31;;;;;;;1.50;0.95;;;;;;;;;;4879287;29;20237;-78
2024/04/06 10:12:00;;;;;;;2.40;0.90;;;;;;;;;;4879295;29;20686;-79
2024/04/06 10:14:30;;;;;;;0.80;0.80;;;;;;;;;;4850600;29;20229;-78
2024/04/06 10:17:07;;;;;;;1.98;1.08;;;;;;;;;;4864847;29;20233;-80
2024/04/06 10:19:34;;;;;;;1.30;0.85;;;;;;;;;;4850673;29;20427;-80
2024/04/06 10:22:04;;;;;;;2.70;0.80;;;;;;;;;;4851061;29;20590;-79
2024/04/06 10:24:29;;;;;;;0.77;0.57;;;;;;;;;;4850305;29;20229;-79
2024/04/06 10:26:57;;;;;;;1.15;0.70;;;;;;;;;;4848894;29;20228;-80
2024/04/06 10:29:25;;;;;;;1.48;0.80;;;;;;;;;;4841223;29;20241;-80
2024/04/06 10:31:51;;;;;;;3.22;0.70;;;;;;;;;;4875478;29;20229;-80
2024/04/06 10:34:21;;;;;;;1.02;0.70;;;;;;;;;;4881768;29;20313;-79
2024/04/06 10:36:49;;;;;;;1.23;0.60;;;;;;;;;;4846802;29;20737;-78
2024/04/06 10:39:14;;;;;;;1.20;0.60;;;;;;;;;;4868010;29;20229;-78
2024/04/06 10:41:44;;;;;;;0.88;0.60;;;;;;;;;;4890311;29;20225;-76
2024/04/06 10:44:12;;;;;;;0.50;0.50;;;;;;;;;;4857043;29;20253;-77
2024/04/06 10:46:38;;;;;;;2.40;0.80;;;;;;;;;;4857915;29;20233;-81
2024/04/06 10:49:12;;;;;;;2.50;0.70;;;;;;;;;;4854066;29;20226;-78
2024/04/06 10:51:44;;;;;;;0.73;0.50;;;;;;;;;;4842185;29;20225;-79
2024/04/06 10:54:12;;;;;;;1.10;0.65;;;;;;;;;;4857881;29;20277;-78
2024/04/06 10:56:38;;;;;;;0.95;0.50;;;;;;;;;;4859930;29;20443;-80
2024/04/06 10:59:04;;;;;;;0.77;0.55;;;;;;;;;;4858222;29;20237;-77
2024/04/06 11:01:34;;;;;;;0.68;0.68;;;;;;;;;;4857412;29;20710;-78
2024/04/06 11:04:01;;;;;;;3.30;0.50;;;;;;;;;;4870253;29;20226;-78
2024/04/06 11:06:27;;;;;;;1.10;0.60;;;;;;;;;;4873327;29;20229;-81
2024/04/06 11:08:55;;;;;;;1.67;0.75;;;;;;;;;;4860802;29;20285;-79
2024/04/06 11:11:21;;;;;;;1.55;0.60;;;;;;;;;;4875651;29;20225;-79
2024/04/06 11:13:46;;;;;;;2.47;0.60;;;;;;;;;;4845080;29;20580;-80
2024/04/06 11:16:15;;;;;;;1.38;0.60;;;;;;;;;;4843222;29;20225;-79
2024/04/06 11:18:43;;;;;;;1.02;0.65;;;;;;;;;;4830911;29;20717;-78
2024/04/06 11:21:09;;;;;;;2.10;0.70;;;;;;;;;;4860730;29;20233;-79
2024/04/06 11:23:37;;;;;;;1.05;0.80;;;;;;;;;;4844881;29;20217;-78
2024/04/06 11:26:03;;;;;;;1.40;0.60;;;;;;;;;;4857659;29;20229;-79
2024/04/06 11:28:29;;;;;;;0.93;0.50;;;;;;;;;;4849519;29;20242;-77
2024/04/06 11:30:54;;;;;;;1.10;0.50;;;;;;;;;;4845035;29;20244;-79
2024/04/06 11:33:23;;;;;;;1.15;0.55;;;;;;;;;;4839011;29;20249;-79
2024/04/06 11:35:48;;;;;;;0.75;0.43;;;;;;;;;;4864703;29;20225;-80
2024/04/06 11:38:16;;;;;;;0.63;0.47;;;;;;;;;;4861522;29;20227;-79
2024/04/06 11:40:47;;;;;;;0.70;0.50;;;;;;;;;;4872250;29;20230;-78
2024/04/06 11:43:17;;;;;;;0.52;0.52;;;;;;;;;;4829598;29;20229;-78
2024/04/06 11:45:43;;;;;;;0.52;0.50;;;;;;;;;;4879090;29;20261;-78
2024/04/06 11:48:10;;;;;;;1.33;0.60;;;;;;;;;;4862112;29;20230;-80
2024/04/06 11:50:36;;;;;;;1.17;0.60;;;;;;;;;;4868598;29;20233;-79
2024/04/06 11:53:03;;;;;;;0.50;0.50;;;;;;;;;;4877100;29;20574;-83
2024/04/06 11:55:29;;;;;;;1.67;0.50;;;;;;;;;;4845922;29;20232;-79
2024/04/06 11:57:55;;;;;;;0.80;0.50;;;;;;;;;;4881521;29;20225;-79
2024/04/06 12:00:20;;;;;;;0.52;0.52;;;;;;;;;;4863689;29;20292;-80
2024/04/06 12:02:48;;;;;;;0.90;0.43;;;;;;;;;;4864907;29;20612;-79
2024/04/06 12:05:13;;;;;;;0.60;0.57;;;;;;;;;;4862108;29;20778;-80
2024/04/06 12:07:39;;;;;;;1.20;0.60;;;;;;;;;;4846993;29;20225;-80
2024/04/06 12:10:05;;;;;;;1.67;0.60;;;;;;;;;;4857493;29;20236;-81
2024/04/06 12:12:31;;;;;;;1.30;0.60;;;;;;;;;;4889140;29;20228;-78
2024/04/06 12:14:59;;;;;;;2.25;0.52;;;;;;;;;;4839937;29;20901;-79
2024/04/06 12:17:30;;;;;;;1.73;0.70;;;;;;;;;;4872119;29;20245;-79
2024/04/06 12:19:56;;;;;;;2.35;0.77;;;;;;;;;;4861872;29;20323;-80
2024/04/06 12:22:24;;;;;;;35.75;32.03;;;;;;;;;;4858971;29;20265;-81
2024/04/06 12:24:52;;;;;;;1.75;1.35;;;;;;;;;;4893422;29;20249;-82
2024/04/06 12:27:17;;;;;;;3.38;2.03;;;;;;;;;;4848021;29;20268;-82
2024/04/06 12:29:46;;;;;;;2.80;1.60;;;;;;;;;;4880824;29;20248;-80
2024/04/06 12:32:14;;;;;;;7.78;7.13;;;;;;;;;;4864917;29;20229;-80
2024/04/06 12:34:42;;;;;;;1.25;1.13;;;;;;;;;;4866061;29;20221;-80
2024/04/06 12:37:10;;;;;;;1.95;1.23;;;;;;;;;;4865888;29;20662;-77
2024/04/06 12:39:36;;;;;;;1.50;0.90;;;;;;;;;;4869112;29;20229;-79
2024/04/06 12:42:03;;;;;;;5.38;4.88;;;;;;;;;;4864239;29;20244;-80
2024/04/06 12:44:31;;;;;;;13.77;12.65;;;;;;;;;;4849868;29;20221;-79
2024/04/06 12:46:58;;;;;;;6.20;5.63;;;;;;;;;;4868537;29;20309;-81
2024/04/06 12:49:25;;;;;;;0.73;0.70;;;;;;;;;;4860382;29;20329;-80
2024/04/06 12:51:51;;;;;;;4.10;1.10;;;;;;;;;;4852921;29;20236;-84
2024/04/06 12:54:17;;;;;;;2.40;1.38;;;;;;;;;;4859936;29;20229;-84
2024/04/06 12:59:26;;;;;;;0.93;0.70;;;;;;;;;;4858319;29;20308;-86
2024/04/06 13:02:02;;;;;;;2.78;1.63;;;;;;;;;;4871140;29;20622;-84
2024/04/06 13:04:29;;;;;;;3.65;2.83;;;;;;;;;;4868726;29;20233;-85
2024/04/06 13:06:56;;;;;;;1.25;0.90;;;;;;;;;;4865814;29;20240;-84
2024/04/06 13:09:22;;;;;;;0.80;0.70;;;;;;;;;;4867801;29;20237;-86
2024/04/06 13:11:50;;;;;;;0.77;0.70;;;;;;;;;;4857594;29;20807;-79
2024/04/06 13:14:18;;;;;;;1.33;0.70;;;;;;;;;;4859086;29;20264;-80
2024/04/06 13:16:44;;;;;;;1.90;0.80;;;;;;;;;;4872588;29;20234;-78
2024/04/06 13:19:12;;;;;;;2.20;0.70;;;;;;;;;;4865183;29;20225;-78
2024/04/06 13:21:41;;;;;;;1.02;0.70;;;;;;;;;;4870037;29;20229;-77
2024/04/06 13:24:09;;;;;;;2.03;0.90;;;;;;;;;;4882244;29;20233;-79
2024/04/06 13:26:37;;;;;;;0.77;0.77;;;;;;;;;;4859777;29;20874;-80
2024/04/06 13:29:07;;;;;;;1.48;0.80;;;;;;;;;;4868299;29;20247;-80
2024/04/06 13:31:32;;;;;;;1.75;0.80;;;;;;;;;;4849109;29;20868;-79
2024/04/06 13:33:58;;;;;;;1.83;0.80;;;;;;;;;;4865950;29;20237;-81
2024/04/06 13:36:24;;;;;;;1.52;0.95;;;;;;;;;;4883413;29;20281;-81
2024/04/06 13:38:49;;;;;;;3.20;0.80;;;;;;;;;;4850370;29;20257;-78
2024/04/06 13:41:17;;;;;;;3.92;0.85;;;;;;;;;;4861190;29;20701;-79
2024/04/06 13:43:49;;;;;;;1.88;0.90;;;;;;;;;;4836557;29;20232;-77
2024/04/06 13:46:17;;;;;;;1.10;0.90;;;;;;;;;;4868742;29;20230;-79
2024/04/06 13:48:45;;;;;;;1.10;1.00;;;;;;;;;;4868908;29;20225;-81
2024/04/06 13:51:10;;;;;;;2.17;0.80;;;;;;;;;;4865342;29;20229;-80
2024/04/06 13:53:36;;;;;;;0.70;0.70;;;;;;;;;;4866731;29;20225;-81
2024/04/06 13:56:04;;;;;;;0.98;0.80;;;;;;;;;;4852549;29;20229;-80
2024/04/06 13:58:29;;;;;;;3.17;1.20;;;;;;;;;;4881343;29;20222;-81
2024/04/06 14:00:55;;;;;;;1.10;1.00;;;;;;;;;;4886711;29;20320;-80
2024/04/06 14:03:20;;;;;;;2.33;1.05;;;;;;;;;;4854415;29;20225;-80
2024/04/06 14:05:50;;;;;;;2.25;0.93;;;;;;;;;;4882529;29;20651;-80
2024/04/06 14:08:20;;;;;;;1.20;0.95;;;;;;;;;;4856443;29;20226;-80
2024/04/06 14:10:46;;;;;;;1.40;1.00;;;;;;;;;;4871866;29;20371;-80
2024/04/06 14:13:16;;;;;;;1.75;0.95;;;;;;;;;;4868948;29;20312;-79
2024/04/06 14:15:41;;;;;;;1.50;1.00;;;;;;;;;;4867171;29;20317;-80
2024/04/06 14:18:07;;;;;;;2.70;1.15;;;;;;;;;;4873086;29;20228;-80
2024/04/06 14:20:33;;;;;;;1.38;0.90;;;;;;;;;;4871981;29;20226;-81
2024/04/06 14:23:04;;;;;;;1.52;1.05;;;;;;;;;;4885308;29;20293;-80
2024/04/06 14:25:30;;;;;;;1.83;1.00;;;;;;;;;;4877596;29;20230;-81
2024/04/06 14:27:57;;;;;;;1.25;0.82;;;;;;;;;;4883498;29;20226;-81
2024/04/06 14:30:30;;;;;;;1.05;0.82;;;;;;;;;;4869580;29;20332;-81
2024/04/06 14:32:58;;;;;;;1.10;0.90;;;;;;;;;;4865433;29;20233;-80
2024/04/06 14:35:26;;;;;;;2.50;1.00;;;;;;;;;;4873833;29;20222;-82
2024/04/06 14:37:52;;;;;;;1.77;1.00;;;;;;;;;;4877708;29;20221;-79
2024/04/06 14:40:17;;;;;;;1.73;0.90;;;;;;;;;;4887427;29;20245;-81